Time;durP1;ratioP1;P1;durP2;ratioP2;P2;SDS_P1;SDS_P2;PMS_P1;PMS_P2;Temp;Humidity;BMP_temperature;BMP_pressure;BME280_temperature;BME280_humidity;BME280_pressure;Samples;Min_cycle;Max_cycle;Signal;HPM_P1;HPM_P2
2022/06/04 00:00:13;;;;;;;12.27;11.88;;;;;;;-141.02;100.00;84513.34;5133607;27;20193;-85
2022/06/04 00:02:45;;;;;;;12.10;11.70;;;;;;;-141.02;100.00;84614.38;5133413;27;20207;-72
2022/06/04 00:05:14;;;;;;;12.15;11.75;;;;;;;-141.02;100.00;84620.22;5133576;27;20722;-73
2022/06/04 00:07:41;;;;;;;11.90;11.50;;;;;;;-141.02;100.00;84686.31;5133182;27;20277;-72
2022/06/04 00:15:41;;;;;;;11.20;10.80;;;;;;;-141.02;100.00;84793.19;5133797;27;20192;-72
2022/06/04 00:18:10;;;;;;;11.10;10.70;;;;;;;-141.02;100.00;85086.69;5133380;27;20228;-72
2022/06/04 00:20:37;;;;;;;11.00;10.60;;;;;;;-141.02;100.00;84841.78;5133078;27;20218;-71
2022/06/04 00:23:06;;;;;;;11.05;10.68;;;;;;;-141.02;100.00;84923.41;5133057;27;20660;-87
2022/06/04 00:25:34;;;;;;;11.50;11.10;;;;;;;-141.02;100.00;84923.41;5133281;27;20220;-71
2022/06/04 00:28:03;;;;;;;11.27;10.88;;;;;;;-141.02;100.00;84987.56;5132981;27;20224;-72
2022/06/04 00:30:30;;;;;;;11.70;11.30;;;;;;;-141.02;100.00;84950.63;5133526;27;20220;-72
2022/06/04 00:32:57;;;;;;;11.60;11.20;;;;;;;-141.02;100.00;84970.06;5133143;27;20232;-72
2022/06/04 00:35:26;;;;;;;11.60;11.20;;;;;;;-141.02;100.00;84972.00;5133119;27;20227;-72
2022/06/04 00:37:54;;;;;;;11.80;11.40;;;;;;;-141.02;100.00;84832.06;5132880;27;20572;-74
2022/06/04 00:40:31;;;;;;;10.85;10.55;;;;;;;-141.02;100.00;85020.59;5133373;27;20224;-86
2022/06/04 00:42:59;;;;;;;11.70;11.30;;;;;;;-141.02;100.00;85008.94;5133049;27;20274;-72
2022/06/04 00:45:58;;;;;;;11.35;10.95;;;;;;;-141.02;100.00;85008.94;5132915;27;20603;-72
2022/06/04 00:48:25;;;;;;;11.65;11.25;;;;;;;-141.02;100.00;84997.28;5100369;27;20637;-72
2022/06/04 00:50:54;;;;;;;12.40;12.00;;;;;;;-141.02;100.00;85012.81;5133116;27;20224;-72
2022/06/04 00:53:22;;;;;;;12.50;12.10;;;;;;;-141.02;100.00;84983.66;5132859;28;20314;-72
2022/06/04 00:56:03;;;;;;;12.23;11.82;;;;;;;-141.02;100.00;84968.13;5132967;27;20228;-72
2022/06/04 00:58:45;;;;;;;11.63;11.23;;;;;;;-141.02;100.00;84985.59;5133759;28;20184;-72
2022/06/04 01:01:21;;;;;;;12.60;12.20;;;;;;;-141.02;100.00;85012.81;5133193;28;20284;-72
2022/06/04 01:03:58;;;;;;;12.05;11.65;;;;;;;-141.02;100.00;85016.72;5133189;28;20195;-72
2022/06/04 01:06:43;;;;;;;11.27;10.88;;;;;;;-141.02;100.00;85018.66;5132863;28;20251;-72
2022/06/04 01:09:32;;;;;;;11.60;11.20;;;;;;;-141.02;100.00;85036.16;5132829;28;20279;-72
2022/06/04 01:12:12;;;;;;;11.30;10.90;;;;;;;-141.02;100.00;85067.25;5133090;28;20191;-72
2022/06/04 01:14:55;;;;;;;10.80;10.50;;;;;;;-141.02;100.00;85059.47;5132719;28;20303;-72
2022/06/04 01:17:30;;;;;;;11.20;10.80;;;;;;;-141.02;100.00;85063.34;5133018;28;20181;-72
2022/06/04 01:20:06;;;;;;;10.95;10.65;;;;;;;-141.02;100.00;85075.03;5132704;28;20644;-72
2022/06/04 01:22:52;;;;;;;11.38;10.98;;;;;;;-141.02;100.00;85092.50;5132961;28;20235;-71
2022/06/04 01:25:29;;;;;;;11.75;11.35;;;;;;;-141.02;100.00;85026.44;5133018;27;20194;-71
2022/06/04 01:28:01;;;;;;;12.00;11.60;;;;;;;-141.02;100.00;85137.22;5132657;28;20279;-72
2022/06/04 01:30:34;;;;;;;11.60;11.20;;;;;;;-141.02;100.00;85075.03;5132877;28;20181;-72
2022/06/04 01:33:08;;;;;;;12.13;11.73;;;;;;;-141.02;100.00;85094.47;5132602;27;20722;-72
2022/06/04 01:35:40;;;;;;;12.60;12.20;;;;;;;-141.02;100.00;85104.19;5132630;27;20572;-72
2022/06/04 01:38:14;;;;;;;12.40;12.00;;;;;;;-141.02;100.00;85082.78;5132867;28;20268;-72
2022/06/04 01:41:04;;;;;;;12.35;11.95;;;;;;;-141.02;100.00;85094.47;5132541;28;20237;-72
2022/06/04 01:43:38;;;;;;;12.27;11.88;;;;;;;-141.02;100.00;85086.69;5132832;28;20199;-72
2022/06/04 01:46:11;;;;;;;12.23;11.82;;;;;;;-141.02;100.00;85098.34;5132517;27;20189;-72
2022/06/04 01:48:41;;;;;;;12.73;12.27;;;;;;;-141.02;100.00;84981.72;5132465;28;20224;-72
2022/06/04 01:51:10;;;;;;;12.52;12.13;;;;;;;-141.02;100.00;85110.00;5132716;28;20205;-72
2022/06/04 01:53:41;;;;;;;12.00;11.60;;;;;;;-141.02;100.00;85082.78;5132295;28;20223;-72
2022/06/04 01:56:14;;;;;;;11.38;10.98;;;;;;;-141.02;100.00;85176.09;5132667;27;20220;-72
2022/06/04 01:58:47;;;;;;;10.70;10.40;;;;;;;-141.02;100.00;85106.13;5135278;27;20224;-72
2022/06/04 02:01:18;;;;;;;9.77;9.48;;;;;;;-141.02;100.00;85319.94;5136059;27;20280;-72
2022/06/04 02:03:52;;;;;;;9.23;8.93;;;;;;;-141.02;100.00;85506.53;5136038;27;20279;-72
2022/06/04 02:06:23;;;;;;;8.57;8.38;;;;;;;-141.02;100.00;85689.28;5135859;27;20311;-72
2022/06/04 02:08:55;;;;;;;8.27;8.07;;;;;;;-141.02;100.00;85751.50;5135962;27;20185;-72
2022/06/04 02:11:25;;;;;;;8.68;8.48;;;;;;;-141.02;100.00;85996.47;5136097;27;20279;-72
2022/06/04 02:13:57;;;;;;;9.20;8.90;;;;;;;-141.02;100.00;86128.66;5136081;27;20694;-72
2022/06/04 02:16:32;;;;;;;9.00;8.70;;;;;;;-141.02;100.00;86276.44;5136081;27;20202;-72
2022/06/04 02:19:00;;;;;;;8.65;8.45;;;;;;;-141.02;100.00;86447.53;5135955;27;20650;-72
2022/06/04 02:21:29;;;;;;;8.48;8.27;;;;;;;-141.02;100.00;86642.00;5135917;27;20279;-72
2022/06/04 02:23:57;;;;;;;8.10;7.90;;;;;;;-141.02;100.00;86793.69;5135564;27;20235;-72
2022/06/04 02:26:25;;;;;;;8.50;8.30;;;;;;;-141.02;100.00;86980.38;5135815;27;20286;-72
2022/06/04 02:28:56;;;;;;;8.30;8.10;;;;;;;-141.02;100.00;87159.28;5135520;27;20192;-72
2022/06/04 02:31:31;;;;;;;8.30;8.10;;;;;;;-141.02;100.00;87233.19;5135498;27;20180;-72
2022/06/04 02:34:09;;;;;;;9.00;8.70;;;;;;;-141.02;100.00;87295.44;5135355;27;20255;-72
2022/06/04 02:36:43;;;;;;;8.50;8.30;;;;;;;-141.02;100.00;87429.63;5136031;27;20216;-72
2022/06/04 02:39:16;;;;;;;8.13;7.93;;;;;;;-141.02;100.00;87464.66;5135676;27;20184;-72
2022/06/04 02:41:47;;;;;;;7.60;7.40;;;;;;;-141.02;100.00;87674.72;5135286;27;20281;-72
2022/06/04 02:44:26;;;;;;;7.40;7.20;;;;;;;-141.02;100.00;87770.03;5135609;27;20189;-72
2022/06/04 02:47:01;;;;;;;7.80;7.60;;;;;;;-141.02;100.00;87867.31;5135374;27;20275;-72
2022/06/04 02:49:41;;;;;;;7.20;7.00;;;;;;;-141.02;100.00;87921.78;5135377;27;20638;-72
2022/06/04 02:52:12;;;;;;;6.80;6.60;;;;;;;-141.02;100.00;87906.22;5135104;27;20283;-72
2022/06/04 02:54:45;;;;;;;7.00;6.80;;;;;;;-141.02;100.00;87991.81;5135010;27;20299;-72
2022/06/04 02:57:14;;;;;;;6.65;6.45;;;;;;;-141.02;100.00;88034.59;5135306;27;20192;-72
2022/06/04 02:59:44;;;;;;;6.85;6.65;;;;;;;-141.02;100.00;88065.72;5135222;27;20193;-72
2022/06/04 03:02:15;;;;;;;7.18;6.97;;;;;;;-141.02;100.00;88046.28;5135878;27;20563;-71
2022/06/04 03:04:43;;;;;;;6.70;6.50;;;;;;;-141.02;100.00;88081.28;5135099;27;20686;-71
2022/06/04 03:07:11;;;;;;;7.00;6.80;;;;;;;-141.02;100.00;88073.50;5134836;27;20232;-72
2022/06/04 03:09:39;;;;;;;6.82;6.63;;;;;;;-141.02;100.00;88137.72;5133936;27;20255;-71
2022/06/04 03:12:07;;;;;;;5.70;5.60;;;;;;;-141.02;100.00;88143.53;5134706;27;20288;-71
2022/06/04 03:14:34;;;;;;;5.80;5.70;;;;;;;-141.02;100.00;88104.63;5134851;27;20314;-72
2022/06/04 03:17:03;;;;;;;5.72;5.63;;;;;;;-141.02;100.00;88073.50;5134564;27;20231;-72
2022/06/04 03:19:30;;;;;;;5.88;5.78;;;;;;;-141.02;100.00;88020.97;5134789;27;20203;-72
2022/06/04 03:21:57;;;;;;;5.95;5.85;;;;;;;-141.02;100.00;87873.13;5134710;27;20670;-72
2022/06/04 03:24:24;;;;;;;6.72;6.53;;;;;;;-141.02;100.00;87760.31;5134688;27;20192;-71
2022/06/04 03:26:51;;;;;;;6.78;6.57;;;;;;;-141.02;100.00;87556.06;5134937;27;20221;-71
2022/06/04 03:29:19;;;;;;;7.10;6.90;;;;;;;-141.02;100.00;87462.72;5134649;27;20366;-72
2022/06/04 03:31:46;;;;;;;7.70;7.50;;;;;;;-141.02;100.00;87312.94;5134539;27;20253;-72
2022/06/04 03:34:14;;;;;;;8.13;7.93;;;;;;;-141.02;100.00;87104.84;5134127;27;20314;-72
2022/06/04 03:36:42;;;;;;;9.15;8.85;;;;;;;-141.02;100.00;86867.56;5134499;27;20228;-72
2022/06/04 03:39:11;;;;;;;11.00;10.60;;;;;;;-141.02;100.00;86505.88;5134424;27;20687;-72
2022/06/04 03:41:38;;;;;;;11.90;11.50;;;;;;;-141.02;100.00;86140.34;5134342;27;20228;-73
2022/06/04 03:44:06;;;;;;;13.20;12.70;;;;;;;-141.02;100.00;85910.91;5134024;27;20291;-72
2022/06/04 03:46:33;;;;;;;13.50;13.00;;;;;;;-141.02;100.00;85737.88;5134279;27;20196;-72
2022/06/04 03:49:00;;;;;;;13.70;13.20;;;;;;;-141.02;100.00;85568.75;5134271;27;20192;-72
2022/06/04 03:51:30;;;;;;;13.88;13.38;;;;;;;-141.02;100.00;85409.34;5133938;27;20731;-72
2022/06/04 03:53:58;;;;;;;13.98;13.48;;;;;;;-141.02;100.00;85265.50;5134088;27;20228;-72
2022/06/04 03:56:26;;;;;;;15.20;14.60;;;;;;;-141.02;100.00;85098.34;5133855;27;20232;-72
2022/06/04 03:58:53;;;;;;;17.00;16.20;;;;;;;-141.02;100.00;84814.56;5134884;27;20200;-72
2022/06/04 04:01:22;;;;;;;18.08;17.27;;;;;;;-141.02;100.00;84558.03;5133970;27;20283;-72
2022/06/04 04:03:50;;;;;;;18.05;17.25;;;;;;;-141.02;100.00;84373.41;5133541;27;20248;-72
2022/06/04 04:06:19;;;;;;;16.85;16.15;;;;;;;-141.02;100.00;84346.22;5133345;27;20256;-72
2022/06/04 04:08:47;;;;;;;16.70;16.10;;;;;;;-141.02;100.00;84223.78;5133625;27;20188;-72
2022/06/04 04:11:17;;;;;;;15.10;14.60;;;;;;;-141.02;100.00;84319.00;5133784;27;20231;-72
2022/06/04 04:13:44;;;;;;;15.10;14.60;;;;;;;-141.02;100.00;84359.81;5133678;27;20772;-72
2022/06/04 04:16:13;;;;;;;14.55;14.05;;;;;;;-141.02;100.00;84381.19;5133737;27;20588;-73
2022/06/04 04:18:40;;;;;;;14.18;13.70;;;;;;;-141.02;100.00;84231.56;5133768;27;20265;-72
2022/06/04 04:21:10;;;;;;;13.80;13.40;;;;;;;-141.02;100.00;84243.22;5133112;27;20231;-73
2022/06/04 04:23:38;;;;;;;15.82;15.23;;;;;;;-141.02;100.00;84151.88;5133612;27;20193;-72
2022/06/04 04:26:08;;;;;;;16.38;15.77;;;;;;;-141.02;100.00;83850.72;5133385;27;20288;-72
2022/06/04 04:28:35;;;;;;;17.95;17.25;;;;;;;-141.02;91.56;83660.28;5133288;27;20206;-73
2022/06/04 04:31:04;;;;;;;18.83;18.02;;;;;;;-141.02;82.55;83413.56;5133237;27;20647;-72
2022/06/04 04:33:33;;;;;;;16.10;15.50;;;;;;;-141.02;86.30;83510.69;5133378;27;20287;-73
2022/06/04 04:36:01;;;;;;;15.20;14.70;;;;;;;-141.02;88.05;83563.16;5133114;27;20573;-73
2022/06/04 04:38:28;;;;;;;15.82;15.32;;;;;;;-141.02;88.86;83592.28;5133510;27;20245;-73
2022/06/04 04:40:55;;;;;;;15.50;15.00;;;;;;;-141.02;95.79;83636.97;5133395;27;20294;-72
2022/06/04 04:43:23;;;;;;;15.60;15.10;;;;;;;-141.02;93.51;83644.75;5133410;27;20227;-73
2022/06/04 04:45:51;;;;;;;14.90;14.40;;;;;;;-141.02;99.48;83679.72;5133514;27;20271;-73
2022/06/04 04:48:18;;;;;;;14.57;14.07;;;;;;;-141.02;100.00;83718.59;5132999;27;20680;-73
2022/06/04 04:50:48;;;;;;;15.48;14.98;;;;;;;-141.02;96.63;83617.56;5133003;27;20192;-73
2022/06/04 04:53:15;;;;;;;15.77;15.27;;;;;;;-141.02;93.13;83559.25;5133591;28;20603;-73
2022/06/04 04:55:46;;;;;;;16.15;15.60;;;;;;;-141.02;90.55;83504.88;5132925;27;20268;-73
2022/06/04 04:58:13;;;;;;;16.33;15.73;;;;;;;-141.02;86.27;83491.28;5133219;28;20267;-73
2022/06/04 05:00:44;;;;;;;16.40;15.80;;;;;;;-141.02;84.99;83489.31;5132901;28;20663;-73
2022/06/04 05:03:11;;;;;;;16.33;15.73;;;;;;;-141.02;84.76;83450.47;5133219;27;20212;-74
2022/06/04 05:05:38;;;;;;;16.77;16.17;;;;;;;-141.02;84.57;83399.97;5132939;27;20228;-74
2022/06/04 05:08:05;;;;;;;16.45;15.85;;;;;;;-141.02;86.22;83429.09;5132900;28;20267;-73
2022/06/04 05:10:32;;;;;;;16.52;15.93;;;;;;;-141.02;86.43;83421.31;5132802;28;20666;-73
2022/06/04 05:12:59;;;;;;;16.08;15.48;;;;;;;-141.02;85.65;83403.84;5132781;28;20228;-73
2022/06/04 05:15:26;;;;;;;16.38;15.77;;;;;;;-141.02;86.43;83454.34;5133011;27;20277;-73
2022/06/04 05:17:55;;;;;;;15.55;14.98;;;;;;;-141.02;91.84;83541.78;5132771;28;20283;-73
2022/06/04 05:20:22;;;;;;;16.30;15.70;;;;;;;-141.02;93.78;83555.38;5132970;27;20188;-73
2022/06/04 05:22:49;;;;;;;16.00;15.40;;;;;;;-141.02;100.00;83594.25;5132667;28;20650;-73
2022/06/04 05:25:16;;;;;;;14.90;14.40;;;;;;;-141.02;100.00;83609.78;5132673;28;20279;-73
2022/06/04 05:27:43;;;;;;;15.40;14.90;;;;;;;-141.02;97.67;83578.69;5132882;28;20253;-82
2022/06/04 05:30:11;;;;;;;14.93;14.43;;;;;;;-141.02;99.63;83598.13;5132972;28;20224;-73
2022/06/04 05:32:38;;;;;;;17.80;17.00;;;;;;;-141.02;100.00;83502.94;5134459;27;20269;-73
2022/06/04 05:35:07;;;;;;;15.07;14.57;;;;;;;-141.02;100.00;83629.22;5136856;27;20315;-73
2022/06/04 05:37:34;;;;;;;14.77;14.27;;;;;;;-141.02;100.00;83551.50;5137098;27;20197;-73
2022/06/04 05:40:01;;;;;;;14.98;14.48;;;;;;;-141.02;99.11;83574.81;5136502;27;20635;-73
2022/06/04 05:42:28;;;;;;;14.80;14.30;;;;;;;-141.02;98.43;83580.63;5136719;27;20188;-74
2022/06/04 05:44:55;;;;;;;14.77;14.27;;;;;;;-141.02;100.00;83576.75;5136627;27;20200;-72
2022/06/04 05:47:22;;;;;;;14.05;13.65;;;;;;;-141.02;100.00;83578.69;5136352;27;20288;-73
2022/06/04 05:49:49;;;;;;;14.68;14.18;;;;;;;-141.02;100.00;83586.47;5136581;27;20275;-73
2022/06/04 05:52:18;;;;;;;14.70;14.20;;;;;;;-141.02;99.88;83570.91;5136545;27;20394;-73
2022/06/04 05:54:45;;;;;;;15.48;14.98;;;;;;;-141.02;96.49;83539.84;5136469;27;20668;-73
2022/06/04 05:57:12;;;;;;;14.80;14.30;;;;;;;-141.02;96.06;83528.19;5136385;27;20220;-73
2022/06/04 05:59:39;;;;;;;14.90;14.40;;;;;;;-141.02;100.00;83644.75;5136372;27;20193;-73
2022/06/04 06:02:06;;;;;;;13.80;13.40;;;;;;;-141.02;100.00;83652.53;5135965;27;20188;-73
2022/06/04 06:04:33;;;;;;;14.20;13.70;;;;;;;-141.02;100.00;83644.75;5136057;27;20623;-72
2022/06/04 06:07:00;;;;;;;14.02;13.52;;;;;;;-141.02;100.00;83671.94;5135713;27;20228;-73
2022/06/04 06:09:29;;;;;;;13.32;12.93;;;;;;;-141.02;100.00;83681.66;5136546;27;20279;-73
2022/06/04 06:11:56;;;;;;;13.95;13.45;;;;;;;-141.02;100.00;83771.03;5136430;27;20192;-83
2022/06/04 06:14:24;;;;;;;13.90;13.40;;;;;;;-141.02;100.00;83765.22;5135868;27;20273;-73
2022/06/04 06:16:52;;;;;;;14.77;14.27;;;;;;;-141.02;100.00;83745.78;5135760;27;20232;-73
2022/06/04 06:19:22;;;;;;;14.27;13.77;;;;;;;-141.02;100.00;83530.13;5135928;27;20239;-74
2022/06/04 06:21:50;;;;;;;14.05;13.55;;;;;;;-141.02;100.00;83640.88;5135889;27;20200;-83
2022/06/04 06:24:20;;;;;;;14.93;14.43;;;;;;;-141.02;100.00;83695.28;5135778;27;20239;-74
2022/06/04 06:26:52;;;;;;;14.75;14.25;;;;;;;-141.02;100.00;83660.28;5135763;27;20280;-73
2022/06/04 06:29:19;;;;;;;15.82;15.23;;;;;;;-141.02;100.00;83640.88;5135821;27;20192;-73
2022/06/04 06:31:47;;;;;;;16.10;15.50;;;;;;;-141.02;100.00;83574.81;5135701;27;20256;-74
2022/06/04 06:34:14;;;;;;;16.38;15.77;;;;;;;-141.02;100.00;83535.94;5135373;27;20224;-73
2022/06/04 06:36:42;;;;;;;16.63;15.93;;;;;;;-141.02;100.00;83578.69;5135285;27;20228;-72
2022/06/04 06:39:09;;;;;;;17.23;16.52;;;;;;;-141.02;98.83;83541.78;5135581;27;20298;-82
2022/06/04 06:41:36;;;;;;;18.45;17.65;;;;;;;-141.02;97.44;83537.91;5135464;27;20232;-74
2022/06/04 06:44:06;;;;;;;18.17;17.40;;;;;;;-141.02;94.78;83483.50;5134901;27;20196;-73
2022/06/04 06:46:36;;;;;;;17.23;16.52;;;;;;;-141.02;98.20;83466.00;5135410;27;20193;-73
2022/06/04 06:49:07;;;;;;;18.00;17.20;;;;;;;-141.02;93.18;83423.28;5135257;27;20232;-74
2022/06/04 06:51:36;;;;;;;18.33;17.52;;;;;;;-141.02;91.28;83366.94;5135502;27;20254;-73
2022/06/04 06:54:03;;;;;;;16.58;15.88;;;;;;;-141.02;89.96;83401.91;5135065;27;20253;-73
2022/06/04 06:56:32;;;;;;;16.30;15.60;;;;;;;-141.02;88.45;83345.56;5134646;27;20817;-73
2022/06/04 06:59:01;;;;;;;18.52;17.63;;;;;;;-141.02;85.73;83361.09;5135024;27;20245;-72
2022/06/04 07:01:31;;;;;;;17.45;16.65;;;;;;;-141.02;89.50;83361.09;5135064;27;20200;-74
2022/06/04 07:03:58;;;;;;;17.20;16.50;;;;;;;-141.02;87.96;83351.38;5134577;27;20196;-73
2022/06/04 07:06:31;;;;;;;17.02;16.33;;;;;;;-141.02;82.91;83289.22;5134422;27;20281;-74
2022/06/04 07:08:59;;;;;;;18.65;17.85;;;;;;;-141.02;83.84;83250.38;5134558;27;20196;-74
2022/06/04 07:11:26;;;;;;;17.90;17.20;;;;;;;-141.02;86.78;83298.94;5135059;27;20235;-74
2022/06/04 07:13:54;;;;;;;18.17;17.40;;;;;;;-141.02;84.34;83258.13;5134401;27;20277;-73
2022/06/04 07:16:21;;;;;;;19.33;18.42;;;;;;;-141.02;83.67;83236.78;5134598;27;20272;-73
2022/06/04 07:18:50;;;;;;;18.63;17.85;;;;;;;-141.02;84.04;83283.41;5134650;27;20200;-73
2022/06/04 07:21:18;;;;;;;18.83;18.02;;;;;;;-141.02;82.97;83260.09;5134616;27;20286;-74
2022/06/04 07:23:45;;;;;;;18.25;17.45;;;;;;;-141.02;84.73;83252.31;5134529;27;20224;-73
2022/06/04 07:26:13;;;;;;;19.27;18.48;;;;;;;-141.02;79.58;83100.78;5134156;27;20670;-75
2022/06/04 07:28:40;;;;;;;19.48;18.58;;;;;;;-141.02;75.99;83019.19;5134451;27;20196;-73
2022/06/04 07:31:09;;;;;;;19.75;18.85;;;;;;;-141.02;70.30;82925.97;5134415;27;20220;-73
2022/06/04 07:33:36;;;;;;;19.67;18.77;;;;;;;-141.02;69.50;82900.72;5134005;27;20253;-72
2022/06/04 07:36:05;;;;;;;19.50;18.60;;;;;;;-141.02;68.33;82891.00;5134244;27;20285;-73
2022/06/04 07:38:32;;;;;;;19.80;18.90;;;;;;;-141.02;70.14;82859.91;5134234;27;20726;-74
2022/06/04 07:40:59;;;;;;;19.80;18.90;;;;;;;-141.02;68.70;82844.38;5134494;27;20261;-72
2022/06/04 07:43:26;;;;;;;21.25;20.25;;;;;;;-141.02;66.77;82762.78;5134139;27;20196;-73
2022/06/04 07:45:53;;;;;;;20.05;19.15;;;;;;;-141.02;71.12;82871.56;5134043;27;20275;-74
2022/06/04 07:48:20;;;;;;;19.83;18.92;;;;;;;-141.02;67.98;82821.06;5133642;27;20230;-75
2022/06/04 07:50:48;;;;;;;19.30;18.40;;;;;;;-141.02;66.39;82807.47;5133607;27;20743;-74
2022/06/04 07:53:16;;;;;;;19.10;18.20;;;;;;;-141.02;68.50;82832.72;5133634;27;20265;-75
2022/06/04 07:55:44;;;;;;;20.00;19.10;;;;;;;-141.02;69.35;82848.25;5133169;27;20273;-73
2022/06/04 07:58:11;;;;;;;19.35;18.45;;;;;;;-141.02;71.68;82867.69;5133535;27;20681;-74
2022/06/04 08:00:38;;;;;;;19.50;18.60;;;;;;;-141.02;71.83;82902.66;5133553;27;20242;-73
2022/06/04 08:03:08;;;;;;;19.08;18.17;;;;;;;-141.02;72.72;82933.72;5133423;27;20192;-73
2022/06/04 08:05:36;;;;;;;19.33;18.42;;;;;;;-141.02;71.95;82953.16;5133230;27;20692;-74
2022/06/04 08:08:03;;;;;;;18.67;17.88;;;;;;;-141.02;73.36;82960.91;5133724;27;20245;-73
2022/06/04 08:10:32;;;;;;;18.90;18.10;;;;;;;-141.02;76.19;82988.13;5133406;27;20731;-73
2022/06/04 08:12:59;;;;;;;18.60;17.80;;;;;;;-141.02;74.19;82995.88;5133567;27;20280;-73
2022/06/04 08:15:26;;;;;;;18.42;17.63;;;;;;;-141.02;75.87;83019.19;5133373;27;20228;-74
2022/06/04 08:17:53;;;;;;;18.23;17.42;;;;;;;-141.02;82.02;83026.97;5133494;27;20543;-73
2022/06/04 08:20:21;;;;;;;18.70;17.90;;;;;;;-141.02;78.11;83034.75;5133398;27;20269;-73
2022/06/04 08:22:49;;;;;;;18.38;17.58;;;;;;;-141.02;81.56;83023.09;5133466;27;20272;-73
2022/06/04 08:25:16;;;;;;;18.75;17.95;;;;;;;-141.02;80.71;82892.94;5133389;27;20236;-73
2022/06/04 08:27:45;;;;;;;19.55;18.65;;;;;;;-141.02;78.01;83001.72;5133031;27;20233;-73
2022/06/04 08:30:14;;;;;;;18.52;17.73;;;;;;;-141.02;79.53;83015.31;5133024;27;20198;-73
2022/06/04 08:32:41;;;;;;;18.77;17.98;;;;;;;-141.02;77.44;82986.19;5133239;27;20575;-74
2022/06/04 08:35:09;;;;;;;18.58;17.77;;;;;;;-141.02;75.04;82906.53;5133410;27;20255;-73
2022/06/04 08:37:36;;;;;;;18.65;17.85;;;;;;;-141.02;79.10;82972.56;5133133;27;20242;-75
2022/06/04 08:40:04;;;;;;;19.25;18.35;;;;;;;-141.02;74.80;82914.31;5133178;27;20195;-75
2022/06/04 08:42:44;;;;;;;19.30;18.50;;;;;;;-141.02;71.80;82813.28;5133008;27;20337;-75
2022/06/04 08:45:14;;;;;;;19.20;18.40;;;;;;;-141.02;70.59;82824.94;5133109;27;20224;-74
2022/06/04 08:47:46;;;;;;;18.92;18.13;;;;;;;-141.02;70.99;82793.88;5132735;27;20203;-74
2022/06/04 08:50:19;;;;;;;18.95;18.15;;;;;;;-141.02;69.12;82720.06;5133125;27;20189;-74
2022/06/04 08:52:49;;;;;;;19.45;18.55;;;;;;;-141.02;64.51;82576.31;5132748;27;20658;-74
2022/06/04 08:58:37;;;;;;;19.70;18.80;;;;;;;-141.02;68.68;82685.09;5133024;28;20546;-74
2022/06/04 09:01:10;;;;;;;20.00;19.10;;;;;;;-141.02;68.97;82692.88;5132715;27;20192;-73
2022/06/04 09:03:46;;;;;;;19.38;18.48;;;;;;;-141.02;68.77;82700.63;5133221;28;20193;-74
2022/06/04 09:06:29;;;;;;;20.05;19.15;;;;;;;-141.02;64.63;82634.59;5132403;27;20227;-74
2022/06/04 09:09:03;;;;;;;19.52;18.73;;;;;;;-141.02;63.23;82520.00;5136639;27;20185;-74
2022/06/04 09:11:39;;;;;;;18.67;17.88;;;;;;;-141.02;62.29;82461.72;5138204;27;20227;-74
2022/06/04 09:14:25;;;;;;;19.98;19.08;;;;;;;-141.02;62.88;82467.56;5136823;27;20220;-74
2022/06/04 09:17:00;;;;;;;19.00;18.20;;;;;;;-141.02;62.04;82467.56;5136597;27;20235;-73
2022/06/04 09:19:34;;;;;;;19.48;18.58;;;;;;;-141.02;60.34;82475.31;5136670;27;20650;-74
2022/06/04 09:22:02;;;;;;;19.92;19.02;;;;;;;-141.02;61.63;82420.94;5136673;27;20646;-73
2022/06/04 09:24:30;;;;;;;20.15;19.25;;;;;;;-141.02;59.73;82343.25;5136792;27;20200;-74
2022/06/04 09:27:15;;;;;;;19.90;19.00;;;;;;;-141.02;58.82;82230.63;5136592;27;20192;-73
2022/06/04 09:30:03;;;;;;;20.10;19.20;;;;;;;-141.02;60.62;82351.03;5136457;27;20199;-74
2022/06/04 09:32:47;;;;;;;19.98;19.08;;;;;;;-141.02;58.20;82238.38;5136404;27;20667;-74
2022/06/04 09:35:17;;;;;;;19.67;18.88;;;;;;;-141.02;59.47;82218.97;5136620;27;20216;-74
2022/06/04 09:37:46;;;;;;;19.67;18.88;;;;;;;-141.02;59.05;82275.28;5136838;27;20320;-74
2022/06/04 09:40:25;;;;;;;19.95;19.05;;;;;;;-141.02;59.21;82230.63;5136222;27;20242;-73
2022/06/04 09:43:04;;;;;;;20.30;19.40;;;;;;;-141.02;57.77;82203.44;5136733;27;20189;-73
2022/06/04 09:45:31;;;;;;;19.95;19.05;;;;;;;-141.02;58.21;82191.78;5136198;27;20279;-74
2022/06/04 09:48:00;;;;;;;20.15;19.25;;;;;;;-141.02;58.56;82149.06;5136063;27;20192;-74
2022/06/04 09:50:31;;;;;;;19.48;18.58;;;;;;;-141.02;57.99;82187.88;5136411;27;20196;-73
2022/06/04 09:53:03;;;;;;;20.63;19.73;;;;;;;-141.02;60.36;82222.84;5136100;27;20280;-74
2022/06/04 09:55:33;;;;;;;19.75;18.85;;;;;;;-141.02;59.82;82339.38;5135999;27;20787;-73
2022/06/04 09:58:02;;;;;;;19.63;18.73;;;;;;;-141.02;60.57;82335.50;5135851;27;20195;-77
2022/06/04 10:00:32;;;;;;;19.52;18.63;;;;;;;-141.02;57.93;82203.44;5136699;27;20200;-73
2022/06/04 10:03:04;;;;;;;19.52;18.63;;;;;;;-141.02;59.21;82197.59;5136106;27;20196;-73
2022/06/04 10:05:34;;;;;;;19.80;18.90;;;;;;;-141.02;55.05;82084.97;5135777;27;20185;-74
2022/06/04 10:08:12;;;;;;;19.83;18.92;;;;;;;-141.02;56.54;82129.63;5136114;27;20254;-73
2022/06/04 10:10:42;;;;;;;19.80;18.90;;;;;;;-141.02;55.17;82040.28;5136062;27;20189;-74
2022/06/04 10:15:59;;;;;;;19.50;18.60;;;;;;;-141.02;52.47;82028.66;5136220;27;20215;-73
2022/06/04 10:18:32;;;;;;;19.67;18.77;;;;;;;-141.02;55.51;82017.00;5134845;27;20192;-74
2022/06/04 10:21:02;;;;;;;19.52;18.63;;;;;;;-141.02;54.33;82110.22;5135967;27;20192;-73
2022/06/04 10:23:31;;;;;;;19.60;18.70;;;;;;;-141.02;54.96;82117.97;5136202;27;20232;-73
2022/06/04 10:26:20;;;;;;;19.40;18.50;;;;;;;-141.02;55.11;82044.19;5135972;27;20231;-90
2022/06/04 10:29:01;;;;;;;18.77;17.98;;;;;;;-141.02;54.88;81983.97;5135717;27;20184;-74
2022/06/04 10:31:41;;;;;;;18.92;18.13;;;;;;;-141.02;52.15;81929.59;5135501;27;20651;-73
2022/06/04 10:34:25;;;;;;;19.85;18.95;;;;;;;-141.02;53.94;81997.56;5135586;27;20185;-74
2022/06/04 10:37:02;;;;;;;19.45;18.55;;;;;;;-141.02;55.37;82059.72;5135140;27;20269;-73
2022/06/04 10:39:51;;;;;;;19.58;18.67;;;;;;;-141.02;56.02;82044.19;5135383;27;20219;-74
2022/06/04 10:42:26;;;;;;;19.48;18.58;;;;;;;-141.02;52.80;81853.88;5135463;27;20544;-74
2022/06/04 10:45:07;;;;;;;19.73;18.83;;;;;;;-141.02;52.31;81758.72;5135572;27;20250;-73
2022/06/04 10:47:36;;;;;;;19.75;18.85;;;;;;;-141.02;49.09;81667.47;5135393;27;20192;-74
2022/06/04 10:50:18;;;;;;;19.60;18.70;;;;;;;-141.02;51.17;81783.97;5135246;27;20196;-73
2022/06/04 10:52:49;;;;;;;19.88;18.98;;;;;;;-141.02;50.49;81836.41;5135196;27;20184;-73
2022/06/04 10:55:25;;;;;;;20.02;19.13;;;;;;;-141.02;50.45;81857.75;5134857;27;20719;-73
2022/06/04 10:58:03;;;;;;;19.58;18.70;;;;;;;-141.02;48.88;81714.06;5135004;27;20637;-73
2022/06/04 11:00:36;;;;;;;19.30;18.50;;;;;;;-141.02;48.33;81655.81;5134784;27;20184;-73
2022/06/04 11:03:13;;;;;;;20.35;19.48;;;;;;;-141.02;48.87;81651.91;5134724;27;20180;-73
2022/06/04 11:05:45;;;;;;;20.30;19.40;;;;;;;-141.02;48.52;81659.69;5134485;27;20234;-73
2022/06/04 11:08:20;;;;;;;20.08;19.17;;;;;;;-141.02;44.71;82083.03;5134484;27;20246;-74
2022/06/04 11:10:50;;;;;;;20.02;19.13;;;;;;;-141.02;46.61;81667.47;5134604;27;20635;-72
2022/06/04 11:13:23;;;;;;;18.77;17.98;;;;;;;-141.02;46.34;81418.91;5134483;27;20184;-73
2022/06/04 11:15:55;;;;;;;19.85;18.95;;;;;;;-141.02;46.73;81319.91;5134361;27;20741;-74
2022/06/04 11:18:29;;;;;;;19.00;18.10;;;;;;;-141.02;44.79;81314.06;5134380;27;20655;-74
2022/06/04 11:21:03;;;;;;;18.40;17.60;;;;;;;-141.02;43.54;81182.03;5134331;27;20231;-73
2022/06/04 11:23:39;;;;;;;19.48;18.58;;;;;;;-141.02;45.04;81341.25;5134868;27;20238;-75
2022/06/04 11:26:19;;;;;;;19.02;18.17;;;;;;;-141.02;45.41;81180.09;5134231;27;20642;-73